createdAt,value
2024-05-09T00:04:08.949Z,97.08
2024-05-09T00:09:10.939Z,97.28
2024-05-09T00:14:11.049Z,97.08
2024-05-09T00:19:10.185Z,96.46
2024-05-09T00:24:11.116Z,96.56
2024-05-09T00:29:12.051Z,96.77
2024-05-09T00:34:13.020Z,96.87
2024-05-09T00:39:14.917Z,96.46
2024-05-09T00:44:14.899Z,96.46
2024-05-09T00:49:15.050Z,96.77
2024-05-09T00:54:15.034Z,96.97
2024-05-09T00:59:14.948Z,96.56
2024-05-09T01:04:20.913Z,96.56
2024-05-09T01:09:14.893Z,96.36
2024-05-09T01:14:19.251Z,96.71
2024-05-09T01:19:15.312Z,96.71
2024-05-09T01:24:14.258Z,96.92
2024-05-09T01:29:15.246Z,97.37
2024-05-09T01:34:16.109Z,97.57
2024-05-09T01:39:17.030Z,97.37
2024-05-09T01:44:18.060Z,97.27
2024-05-09T01:49:20.029Z,97.37
2024-05-09T01:54:18.966Z,97.37
2024-05-09T01:59:19.912Z,97.67
2024-05-09T02:04:21.984Z,97.88
2024-05-09T02:09:21.053Z,98.08
2024-05-09T02:14:22.973Z,97.94
2024-05-09T02:19:21.285Z,98.24
2024-05-09T02:24:22.213Z,97.74
2024-05-09T02:29:23.116Z,97.94
2024-05-09T02:34:24.089Z,95.69
2024-05-09T02:39:25.019Z,96.51
2024-05-09T02:44:26.986Z,96.71
2024-05-09T02:49:25.925Z,96.51
2024-05-09T02:54:26.861Z,96.75
2024-05-09T02:59:28.848Z,97.16
2024-05-09T03:04:28.764Z,97.27
2024-05-09T03:09:29.793Z,97.88
2024-05-09T03:14:29.809Z,98.54
2024-05-09T08:06:26.104Z,73.12
2024-05-09T08:11:25.000Z,73.16
2024-05-09T08:16:26.981Z,75.90
2024-05-09T08:21:25.877Z,69.84
2024-05-09T08:26:27.824Z,71.44
2024-05-09T08:31:27.812Z,70.21
2024-05-09T08:36:27.816Z,70.86
2024-05-09T08:41:26.666Z,70.08
2024-05-09T08:46:28.624Z,71.23
2024-05-09T08:51:28.564Z,70.18
2024-05-09T08:56:28.472Z,69.14
2024-05-09T09:01:28.488Z,68.77
2024-05-09T09:06:28.442Z,67.15
2024-05-09T09:11:28.711Z,68.90
2024-05-09T09:16:27.930Z,69.07
2024-05-09T09:21:28.788Z,65.97
2024-05-09T09:26:30.700Z,64.93
2024-05-09T09:31:34.575Z,62.64
2024-05-09T09:36:29.726Z,63.56
2024-05-09T09:41:30.574Z,61.77
2024-05-09T09:46:33.769Z,63.93
2024-05-09T09:51:33.699Z,62.88
2024-05-09T09:56:32.563Z,62.88
2024-05-09T10:01:36.601Z,62.09
2024-05-09T10:06:33.562Z,63.11
2024-05-09T10:11:42.066Z,62.94
2024-05-09T10:16:36.748Z,60.03
2024-05-09T10:21:35.817Z,61.98
2024-05-09T10:26:36.787Z,61.47
2024-05-09T10:31:38.789Z,62.48
2024-05-09T10:36:37.716Z,62.35
2024-05-09T10:41:39.595Z,63.76
2024-05-09T10:46:39.521Z,67.71
2024-05-09T10:51:38.497Z,65.86
2024-05-09T10:56:39.409Z,66.30
2024-05-09T11:01:40.419Z,67.64
2024-05-09T11:06:42.420Z,68.61
2024-05-09T11:11:42.354Z,68.24
2024-05-09T11:16:41.323Z,66.33
2024-05-09T11:21:42.738Z,65.33
2024-05-09T11:26:41.685Z,65.77
2024-05-09T11:31:43.609Z,65.23
2024-05-09T11:36:42.605Z,64.03
2024-05-09T11:41:44.510Z,67.24
2024-05-09T11:46:44.435Z,64.30
2024-05-09T11:51:44.437Z,65.10
2024-05-09T11:56:43.343Z,65.06
2024-05-09T12:01:44.479Z,63.93
2024-05-09T12:06:46.499Z,63.96
2024-05-09T12:11:45.473Z,64.40
2024-05-09T12:16:46.545Z,63.12
2024-05-09T12:21:47.495Z,65.07
2024-05-09T12:26:48.337Z,64.60
2024-05-09T12:31:49.352Z,62.43
2024-05-09T12:36:50.314Z,64.50
2024-05-09T12:41:51.257Z,62.86
2024-05-09T12:46:54.207Z,64.66
2024-05-09T12:51:53.217Z,62.59
2024-05-09T12:56:54.179Z,63.03
2024-05-09T13:02:00.447Z,61.96
2024-05-09T13:06:56.854Z,60.82
2024-05-09T13:11:55.866Z,62.66
2024-05-09T13:16:57.796Z,62.96
2024-05-09T13:21:57.742Z,61.97
2024-05-09T13:26:56.612Z,60.47
2024-05-09T13:31:58.513Z,61.93
2024-05-09T13:36:57.447Z,59.83
2024-05-09T13:41:58.308Z,61.66
2024-05-09T13:47:01.239Z,59.99
2024-05-09T13:52:00.359Z,59.44
2024-05-09T13:57:01.354Z,57.93
2024-05-09T14:02:02.582Z,60.62
2024-05-09T14:07:04.544Z,61.80
2024-05-09T14:12:04.386Z,61.50
2024-05-09T14:17:03.424Z,60.57
2024-05-09T14:22:04.465Z,60.14
2024-05-09T14:27:07.376Z,60.80
2024-05-09T14:32:07.315Z,60.25
2024-05-09T14:37:07.218Z,60.68
2024-05-09T14:42:06.103Z,62.06
2024-05-09T14:47:07.006Z,60.82
2024-05-09T14:52:09.107Z,60.55
2024-05-09T14:57:09.128Z,60.80
2024-05-09T15:02:09.145Z,61.63
2024-05-09T15:07:11.307Z,60.35
2024-05-09T15:12:08.325Z,61.13
2024-05-09T15:17:09.268Z,61.05
2024-05-09T15:22:11.265Z,62.10
2024-05-09T15:27:11.271Z,61.02
2024-05-09T15:32:11.340Z,60.72
2024-05-09T15:37:12.619Z,60.98
2024-05-09T15:42:12.441Z,60.55
2024-05-09T15:47:13.342Z,61.69
2024-05-09T15:52:12.304Z,61.13
2024-05-09T15:57:13.260Z,60.35
2024-05-09T16:02:16.244Z,62.19
2024-05-09T16:07:15.178Z,60.42
2024-05-09T16:12:18.049Z,61.38
2024-05-09T16:17:17.099Z,61.18
2024-05-09T16:22:18.186Z,60.62
2024-05-09T16:27:19.206Z,58.07
2024-05-09T16:32:21.159Z,60.28
2024-05-09T16:37:20.133Z,60.75
2024-05-09T16:42:20.993Z,61.91
2024-05-09T16:47:21.937Z,62.75
2024-05-09T16:52:25.844Z,64.56
2024-05-09T16:57:22.791Z,63.96
2024-05-09T17:02:24.918Z,64.22
2024-05-09T17:07:24.123Z,64.32
2024-05-09T17:12:24.988Z,64.52
2024-05-09T17:17:28.022Z,64.79
2024-05-09T17:22:26.994Z,64.65
2024-05-09T17:27:27.961Z,63.71
2024-05-09T17:32:29.011Z,63.92
2024-05-09T17:37:29.983Z,64.35
2024-05-09T17:42:30.937Z,65.19
2024-05-09T17:47:32.949Z,65.39
2024-05-09T17:52:31.907Z,65.59
2024-05-09T17:57:32.783Z,66.33
2024-05-09T18:02:33.768Z,66.73
2024-05-09T18:07:35.649Z,66.63
2024-05-09T18:12:36.606Z,67.77
2024-05-09T18:17:36.540Z,68.71
2024-05-09T18:22:37.357Z,69.01
2024-05-09T18:27:37.421Z,69.31
2024-05-09T18:32:36.460Z,69.65
2024-05-09T18:37:37.780Z,69.85
2024-05-09T18:42:38.701Z,70.09
2024-05-09T18:47:39.645Z,70.09
2024-05-09T18:52:41.555Z,70.12
2024-05-09T18:57:39.470Z,70.42
2024-05-09T19:02:41.077Z,70.93
2024-05-09T19:07:40.144Z,71.67
2024-05-09T19:12:41.159Z,72.51
2024-05-09T19:17:42.131Z,73.22
2024-05-09T19:22:44.057Z,73.46
2024-05-09T19:27:44.017Z,73.76
2024-05-09T19:32:43.934Z,74.00
2024-05-09T19:37:43.946Z,74.30
2024-05-09T19:42:44.011Z,74.40
2024-05-09T19:47:42.989Z,74.74
2024-05-09T19:52:43.946Z,74.74
2024-05-09T19:57:45.877Z,74.54
2024-05-09T20:02:44.971Z,74.24
2024-05-09T20:07:47.225Z,77.58
2024-05-09T20:12:46.182Z,78.56
2024-05-09T20:17:47.490Z,80.59
2024-05-09T20:22:49.461Z,79.41
2024-05-09T20:27:48.422Z,80.69
2024-05-09T20:32:49.675Z,81.10
2024-05-09T20:37:51.558Z,81.40
2024-05-09T20:42:50.486Z,82.15
2024-05-09T20:47:51.506Z,85.13
2024-05-09T20:52:52.471Z,85.84
2024-05-09T20:58:37.335Z,86.90
2024-05-09T21:02:54.318Z,86.53
2024-05-09T21:07:55.193Z,86.77
2024-05-09T21:12:56.175Z,85.96
2024-05-09T21:17:57.215Z,86.61
2024-05-09T21:22:58.141Z,86.86
2024-05-09T21:28:00.231Z,87.71
2024-05-09T21:32:59.845Z,88.57
2024-05-09T21:38:00.755Z,89.22
2024-05-09T21:43:01.799Z,89.73
2024-05-09T21:48:03.786Z,89.83
2024-05-09T21:53:02.693Z,90.38
2024-05-09T21:58:04.003Z,91.14
2024-05-09T22:03:04.309Z,91.24
2024-05-09T22:08:03.246Z,90.67
2024-05-09T22:13:05.094Z,91.18
2024-05-09T22:18:04.507Z,91.59
2024-05-09T22:23:06.401Z,92.71
2024-05-09T22:28:05.454Z,92.96
2024-05-09T22:33:06.730Z,92.45
2024-05-09T22:38:07.739Z,92.80
2024-05-09T22:43:08.760Z,93.31
2024-05-09T22:48:10.936Z,94.64
2024-05-09T22:53:10.868Z,94.68
2024-05-09T22:58:11.000Z,94.82
2024-05-09T23:03:09.954Z,94.82
2024-05-09T23:08:11.851Z,95.28
2024-05-09T23:13:10.814Z,95.07
2024-05-09T23:18:11.963Z,95.63
2024-05-09T23:23:17.784Z,96.45
2024-05-09T23:28:13.861Z,96.04
2024-05-09T23:33:13.798Z,97.31
2024-05-09T23:38:13.451Z,96.70
2024-05-09T23:43:15.478Z,97.31
2024-05-09T23:48:14.485Z,97.52
2024-05-09T23:53:15.437Z,98.74
2024-05-09T23:58:17.422Z,98.13
